PWSweather.com
Personal Weather Stations
Station Observations
IPODRAVI2
Croatia, Trnovec BartoloveckiHR

CroatiaTrnovec BartoloveckiHR

Lat: 46.2947, Lon: 16.3989

Elevation: 535

Station Type: Davis Vantage Pro2 plus

http://www.pljusak.com/trnovec1/wx.html

High Low Average
Temperature 82.1°F27.8°F 63.0°F17.2°F 72.1°F22.3°F
Dew Point 66.9°F19.4°F 56.4°F13.6°F 63.2°F17.3°F
Winds 13.0 mph N20.9 mph N Calm Calm 5.3 mph 8.5 mph
Wind Gusts 19.0 mph30.6 mph -- 8.6 mph13.8 mph
Humidity 96% 51% 76%
Pressure 29.86 in1011.20 in 29.77 in1008.10 in -
Precipitation 0.42 in10.70 in - -
Hour Temp Dew Point Humidity Winds Wind Gusts Pressure Precip Precip Rate Daily Precip Total
12:00 AM 65.8°F18.8°C 63.7°F17.6°C 93% Calm Calm -- 29.82 in1009.8 mb 0.00 in0.0 mm 0.00 in/hr0.0 mm/hr 0.00 in0.0 mm
12:10 AM 65.8°F18.8°C 63.7°F17.6°C 93% 1.6 mph NNE2.6 kmh NNE 3.0 mph4.8 kmh 29.82 in1009.8 mb 0.00 in0.0 mm 0.00 in/hr0.0 mm/hr 0.00 in0.0 mm
12:20 AM 65.8°F18.8°C 64.0°F17.8°C 94% 0.2 mph NNE0.3 kmh NNE 2.0 mph3.2 kmh 29.82 in1009.8 mb 0.00 in0.0 mm 0.00 in/hr0.0 mm/hr 0.00 in0.0 mm
12:30 AM 65.8°F18.8°C 64.0°F17.8°C 94% 0.2 mph NNE0.3 kmh NNE 3.0 mph4.8 kmh 29.82 in1009.8 mb 0.00 in0.0 mm 0.00 in/hr0.0 mm/hr 0.00 in0.0 mm
12:40 AM 65.8°F18.8°C 64.0°F17.8°C 94% 1.0 mph NNE1.6 kmh NNE 3.0 mph4.8 kmh 29.82 in1009.8 mb 0.00 in0.0 mm 0.00 in/hr0.0 mm/hr 0.00 in0.0 mm
12:50 AM 65.9°F18.8°C 64.1°F17.8°C 94% 2.5 mph NNE4.0 kmh NNE 3.0 mph4.8 kmh 29.82 in1009.8 mb 0.00 in0.0 mm 0.00 in/hr0.0 mm/hr 0.00 in0.0 mm
01:00 AM 65.9°F18.8°C 64.1°F17.8°C 94% 3.2 mph NNE5.1 kmh NNE 5.0 mph8.0 kmh 29.82 in1009.8 mb 0.00 in0.0 mm 0.00 in/hr0.0 mm/hr 0.00 in0.0 mm
01:10 AM 65.9°F18.8°C 64.1°F17.8°C 94% 2.7 mph NNE4.3 kmh NNE 4.0 mph6.4 kmh 29.82 in1009.8 mb 0.00 in0.0 mm 0.00 in/hr0.0 mm/hr 0.00 in0.0 mm
01:20 AM 65.9°F18.8°C 64.1°F17.8°C 94% 2.7 mph NNE4.3 kmh NNE 4.0 mph6.4 kmh 29.81 in1009.5 mb 0.00 in0.0 mm 0.00 in/hr0.0 mm/hr 0.00 in0.0 mm
01:30 AM 66.0°F18.9°C 64.2°F17.9°C 94% 2.1 mph N3.4 kmh N 3.0 mph4.8 kmh 29.81 in1009.5 mb 0.00 in0.0 mm 0.00 in/hr0.0 mm/hr 0.00 in0.0 mm
01:40 AM 66.1°F18.9°C 64.3°F17.9°C 94% 2.7 mph NNE4.3 kmh NNE 4.0 mph6.4 kmh 29.81 in1009.5 mb 0.00 in0.0 mm 0.00 in/hr0.0 mm/hr 0.00 in0.0 mm
01:50 AM 66.1°F18.9°C 64.3°F17.9°C 94% 4.2 mph N6.8 kmh N 7.0 mph11.3 kmh 29.81 in1009.5 mb 0.00 in0.0 mm 0.00 in/hr0.0 mm/hr 0.00 in0.0 mm
02:00 AM 66.1°F18.9°C 64.3°F17.9°C 94% 2.9 mph NNE4.7 kmh NNE 9.0 mph14.5 kmh 29.81 in1009.5 mb 0.00 in0.0 mm 0.00 in/hr0.0 mm/hr 0.00 in0.0 mm
02:10 AM 66.1°F18.9°C 64.3°F17.9°C 94% 2.0 mph N3.2 kmh N 5.0 mph8.0 kmh 29.81 in1009.5 mb 0.04 in1.0 mm 0.24 in/hr6.1 mm/hr 0.04 in1.0 mm
02:20 AM 65.8°F18.8°C 64.0°F17.8°C 94% 0.5 mph N0.8 kmh N 2.0 mph3.2 kmh 29.80 in1009.1 mb 0.13 in3.3 mm 0.78 in/hr19.8 mm/hr 0.16 in4.1 mm
02:30 AM 65.7°F18.7°C 64.2°F17.9°C 95% 0.8 mph N1.3 kmh N 3.0 mph4.8 kmh 29.80 in1009.1 mb 0.02 in0.5 mm 0.12 in/hr3.0 mm/hr 0.17 in4.3 mm
02:40 AM 65.6°F18.7°C 64.1°F17.8°C 95% 1.2 mph N1.9 kmh N 3.0 mph4.8 kmh 29.80 in1009.1 mb 0.01 in0.3 mm 0.06 in/hr1.5 mm/hr 0.18 in4.6 mm
02:50 AM 65.6°F18.7°C 64.1°F17.8°C 95% 4.8 mph N7.7 kmh N 6.0 mph9.7 kmh 29.80 in1009.1 mb 0.02 in0.5 mm 0.12 in/hr3.0 mm/hr 0.20 in5.1 mm
03:00 AM 65.5°F18.6°C 64.0°F17.8°C 95% 5.9 mph N9.5 kmh N 8.0 mph12.9 kmh 29.80 in1009.1 mb 0.01 in0.3 mm 0.01 in/hr0.3 mm/hr 0.21 in5.3 mm
03:10 AM 65.4°F18.6°C 63.6°F17.6°C 94% 5.7 mph N9.2 kmh N 9.0 mph14.5 kmh 29.80 in1009.1 mb 0.02 in0.5 mm 0.12 in/hr3.0 mm/hr 0.22 in5.6 mm
03:20 AM 65.3°F18.5°C 63.8°F17.7°C 95% 5.8 mph NE9.3 kmh NE 10.0 mph16.1 kmh 29.80 in1009.1 mb 0.02 in0.5 mm 0.12 in/hr3.0 mm/hr 0.23 in5.8 mm
03:30 AM 65.2°F18.4°C 63.7°F17.6°C 95% 4.2 mph NNE6.8 kmh NNE 10.0 mph16.1 kmh 29.80 in1009.1 mb 0.03 in0.8 mm 0.18 in/hr4.6 mm/hr 0.26 in6.6 mm
03:40 AM 65.1°F18.4°C 63.7°F17.6°C 95% 4.6 mph N7.4 kmh N 10.0 mph16.1 kmh 29.81 in1009.5 mb 0.02 in0.5 mm 0.12 in/hr3.0 mm/hr 0.28 in7.1 mm
03:50 AM 65.1°F18.4°C 63.6°F17.6°C 95% 8.1 mph NNE13.0 kmh NNE 11.0 mph17.7 kmh 29.81 in1009.5 mb 0.01 in0.3 mm 0.06 in/hr1.5 mm/hr 0.28 in7.1 mm
04:00 AM 65.1°F18.4°C 63.6°F17.6°C 95% 5.1 mph NNE8.2 kmh NNE 7.0 mph11.3 kmh 29.81 in1009.5 mb 0.01 in0.3 mm 0.01 in/hr0.3 mm/hr 0.29 in7.4 mm
04:10 AM 65.1°F18.4°C 63.6°F17.6°C 95% 2.8 mph N4.5 kmh N 5.0 mph8.0 kmh 29.81 in1009.5 mb 0.01 in0.3 mm 0.06 in/hr1.5 mm/hr 0.30 in7.6 mm
04:20 AM 65.0°F18.3°C 63.5°F17.5°C 95% 2.6 mph N4.2 kmh N 5.0 mph8.0 kmh 29.81 in1009.5 mb 0.00 in0.0 mm 0.00 in/hr0.0 mm/hr 0.30 in7.6 mm
04:30 AM 65.0°F18.3°C 63.5°F17.5°C 95% 3.5 mph N5.6 kmh N 5.0 mph8.0 kmh 29.81 in1009.5 mb 0.01 in0.3 mm 0.06 in/hr1.5 mm/hr 0.31 in7.9 mm
04:40 AM 65.0°F18.3°C 63.8°F17.7°C 96% 1.0 mph N1.6 kmh N 3.0 mph4.8 kmh 29.81 in1009.5 mb 0.00 in0.0 mm 0.00 in/hr0.0 mm/hr 0.31 in7.9 mm
04:50 AM 65.0°F18.3°C 63.8°F17.7°C 96% 1.0 mph N1.6 kmh N 4.0 mph6.4 kmh 29.81 in1009.5 mb 0.01 in0.3 mm 0.06 in/hr1.5 mm/hr 0.32 in8.1 mm
05:00 AM 65.0°F18.3°C 63.8°F17.7°C 96% 1.2 mph N1.9 kmh N 4.0 mph6.4 kmh 29.81 in1009.5 mb 0.00 in0.0 mm 0.00 in/hr0.0 mm/hr 0.32 in8.1 mm
05:10 AM 64.9°F18.3°C 63.4°F17.4°C 95% 0.5 mph N0.8 kmh N 3.0 mph4.8 kmh 29.81 in1009.5 mb 0.00 in0.0 mm 0.00 in/hr0.0 mm/hr 0.32 in8.1 mm
05:21 AM 64.9°F18.3°C 63.4°F17.4°C 95% 0.8 mph N1.3 kmh N 2.0 mph3.2 kmh 29.81 in1009.5 mb 0.00 in0.0 mm 0.00 in/hr0.0 mm/hr 0.32 in8.1 mm
05:31 AM 64.9°F18.3°C 63.4°F17.4°C 95% 0.8 mph N1.3 kmh N 1.0 mph1.6 kmh 29.81 in1009.5 mb 0.01 in0.3 mm 0.06 in/hr1.5 mm/hr 0.32 in8.1 mm
05:38 AM 64.9°F18.3°C 63.4°F17.4°C 95% 0.5 mph N0.8 kmh N 2.0 mph3.2 kmh 29.81 in1009.5 mb 0.00 in0.0 mm 0.00 in/hr0.0 mm/hr 0.32 in8.1 mm
05:41 AM 64.9°F18.3°C 63.4°F17.4°C 95% 0.4 mph N0.6 kmh N 1.0 mph1.6 kmh 29.81 in1009.5 mb 0.00 in0.0 mm 0.00 in/hr0.0 mm/hr 0.32 in8.1 mm
05:51 AM 65.0°F18.3°C 63.5°F17.5°C 95% 0.5 mph N0.8 kmh N 3.0 mph4.8 kmh 29.81 in1009.5 mb 0.00 in0.0 mm 0.00 in/hr0.0 mm/hr 0.32 in8.1 mm
06:01 AM 65.0°F18.3°C 63.5°F17.5°C 95% 1.1 mph N1.8 kmh N 1.0 mph1.6 kmh 29.81 in1009.5 mb 0.00 in0.0 mm 0.00 in/hr0.0 mm/hr 0.32 in8.1 mm
06:11 AM 65.1°F18.4°C 63.6°F17.6°C 95% 1.1 mph N1.8 kmh N 3.0 mph4.8 kmh 29.81 in1009.5 mb 0.00 in0.0 mm 0.00 in/hr0.0 mm/hr 0.32 in8.1 mm
06:20 AM 65.3°F18.5°C 63.8°F17.7°C 95% 2.4 mph NNW3.9 kmh NNW 8.0 mph12.9 kmh 29.81 in1009.5 mb 0.00 in0.0 mm 0.00 in/hr0.0 mm/hr 0.32 in8.1 mm
06:31 AM 65.7°F18.7°C 64.3°F17.9°C 95% 5.1 mph N8.2 kmh N 9.0 mph14.5 kmh 29.81 in1009.5 mb 0.00 in0.0 mm 0.00 in/hr0.0 mm/hr 0.32 in8.1 mm
06:40 AM 66.5°F19.2°C 64.7°F18.2°C 94% 6.0 mph NNW9.7 kmh NNW 12.0 mph19.3 kmh 29.81 in1009.5 mb 0.00 in0.0 mm 0.00 in/hr0.0 mm/hr 0.32 in8.1 mm
06:50 AM 66.9°F19.4°C 64.8°F18.2°C 93% 5.8 mph N9.3 kmh N 9.0 mph14.5 kmh 29.81 in1009.5 mb 0.00 in0.0 mm 0.00 in/hr0.0 mm/hr 0.32 in8.1 mm
07:01 AM 67.9°F19.9°C 64.9°F18.3°C 90% 9.6 mph NNE15.4 kmh NNE 13.0 mph20.9 kmh 29.81 in1009.5 mb 0.00 in0.0 mm 0.00 in/hr0.0 mm/hr 0.32 in8.1 mm
07:11 AM 68.6°F20.3°C 64.9°F18.3°C 88% 11.3 mph NNW18.2 kmh NNW 18.0 mph29.0 kmh 29.81 in1009.5 mb 0.00 in0.0 mm 0.00 in/hr0.0 mm/hr 0.32 in8.1 mm
07:20 AM 69.1°F20.6°C 65.4°F18.6°C 88% 8.8 mph NE14.2 kmh NE 11.0 mph17.7 kmh 29.81 in1009.5 mb 0.00 in0.0 mm 0.00 in/hr0.0 mm/hr 0.32 in8.1 mm
07:31 AM 69.4°F20.8°C 65.4°F18.6°C 87% 10.8 mph N17.4 kmh N 14.0 mph22.5 kmh 29.81 in1009.5 mb 0.00 in0.0 mm 0.00 in/hr0.0 mm/hr 0.32 in8.1 mm
07:41 AM 69.8°F21.0°C 65.4°F18.6°C 86% 10.2 mph NE16.4 kmh NE 14.0 mph22.5 kmh 29.81 in1009.5 mb 0.00 in0.0 mm 0.00 in/hr0.0 mm/hr 0.32 in8.1 mm
07:51 AM 70.1°F21.2°C 65.0°F18.3°C 84% 11.8 mph N19.0 kmh N 15.0 mph24.1 kmh 29.81 in1009.5 mb 0.00 in0.0 mm 0.00 in/hr0.0 mm/hr 0.32 in8.1 mm
08:01 AM 70.5°F21.4°C 65.1°F18.4°C 83% 10.9 mph NNW17.5 kmh NNW 13.0 mph20.9 kmh 29.81 in1009.5 mb 0.00 in0.0 mm 0.00 in/hr0.0 mm/hr 0.32 in8.1 mm
08:11 AM 71.3°F21.8°C 65.9°F18.8°C 83% 7.6 mph NNE12.2 kmh NNE 14.0 mph22.5 kmh 29.81 in1009.5 mb 0.00 in0.0 mm 0.00 in/hr0.0 mm/hr 0.32 in8.1 mm
08:20 AM 71.3°F21.8°C 65.2°F18.4°C 81% 11.9 mph NNE19.2 kmh NNE 16.0 mph25.7 kmh 29.81 in1009.5 mb 0.00 in0.0 mm 0.00 in/hr0.0 mm/hr 0.32 in8.1 mm
08:30 AM 71.6°F22.0°C 65.1°F18.4°C 80% 8.3 mph NNE13.4 kmh NNE 12.0 mph19.3 kmh 29.81 in1009.5 mb 0.00 in0.0 mm 0.00 in/hr0.0 mm/hr 0.32 in8.1 mm
08:40 AM 72.2°F22.3°C 65.3°F18.5°C 79% 13.0 mph NNE20.9 kmh NNE 17.0 mph27.4 kmh 29.81 in1009.5 mb 0.00 in0.0 mm 0.00 in/hr0.0 mm/hr 0.32 in8.1 mm
08:50 AM 72.5°F22.5°C 65.6°F18.7°C 79% 8.5 mph N13.7 kmh N 15.0 mph24.1 kmh 29.81 in1009.5 mb 0.00 in0.0 mm 0.00 in/hr0.0 mm/hr 0.32 in8.1 mm
09:00 AM 72.9°F22.7°C 65.6°F18.7°C 78% 10.4 mph NE16.7 kmh NE 16.0 mph25.7 kmh 29.81 in1009.5 mb 0.00 in0.0 mm 0.00 in/hr0.0 mm/hr 0.32 in8.1 mm
09:10 AM 73.0°F22.8°C 65.4°F18.6°C 77% 10.1 mph NE16.3 kmh NE 17.0 mph27.4 kmh 29.81 in1009.5 mb 0.00 in0.0 mm 0.00 in/hr0.0 mm/hr 0.32 in8.1 mm
09:20 AM 73.8°F23.2°C 65.8°F18.8°C 76% 8.0 mph ENE12.9 kmh ENE 10.0 mph16.1 kmh 29.81 in1009.5 mb 0.00 in0.0 mm 0.00 in/hr0.0 mm/hr 0.32 in8.1 mm
09:30 AM 74.1°F23.4°C 66.0°F18.9°C 76% 6.9 mph NNE11.1 kmh NNE 11.0 mph17.7 kmh 29.82 in1009.8 mb 0.00 in0.0 mm 0.00 in/hr0.0 mm/hr 0.32 in8.1 mm
09:40 AM 74.2°F23.4°C 65.8°F18.8°C 75% 7.1 mph NNE11.4 kmh NNE 15.0 mph24.1 kmh 29.82 in1009.8 mb 0.00 in0.0 mm 0.00 in/hr0.0 mm/hr 0.32 in8.1 mm
09:50 AM 74.0°F23.3°C 66.0°F18.9°C 76% 6.9 mph N11.1 kmh N 11.0 mph17.7 kmh 29.81 in1009.5 mb 0.00 in0.0 mm 0.00 in/hr0.0 mm/hr 0.32 in8.1 mm
10:00 AM 74.7°F23.7°C 66.2°F19.0°C 75% 9.5 mph N15.3 kmh N 13.0 mph20.9 kmh 29.81 in1009.5 mb 0.00 in0.0 mm 0.00 in/hr0.0 mm/hr 0.32 in8.1 mm
10:10 AM 74.7°F23.7°C 65.5°F18.6°C 73% 9.4 mph N15.1 kmh N 13.0 mph20.9 kmh 29.82 in1009.8 mb 0.00 in0.0 mm 0.00 in/hr0.0 mm/hr 0.32 in8.1 mm
10:20 AM 75.1°F23.9°C 65.9°F18.8°C 73% 9.0 mph N14.5 kmh N 11.0 mph17.7 kmh 29.81 in1009.5 mb 0.00 in0.0 mm 0.00 in/hr0.0 mm/hr 0.32 in8.1 mm
10:30 AM 76.4°F24.7°C 66.7°F19.3°C 72% 5.7 mph N9.2 kmh N 11.0 mph17.7 kmh 29.81 in1009.5 mb 0.00 in0.0 mm 0.00 in/hr0.0 mm/hr 0.32 in8.1 mm
10:40 AM 77.3°F25.2°C 66.8°F19.3°C 70% 8.8 mph N14.2 kmh N 10.0 mph16.1 kmh 29.81 in1009.5 mb 0.00 in0.0 mm 0.00 in/hr0.0 mm/hr 0.32 in8.1 mm
10:50 AM 77.2°F25.1°C 66.7°F19.3°C 70% 6.7 mph N10.8 kmh N 11.0 mph17.7 kmh 29.81 in1009.5 mb 0.00 in0.0 mm 0.00 in/hr0.0 mm/hr 0.32 in8.1 mm
11:00 AM 77.3°F25.2°C 66.7°F19.3°C 70% 9.3 mph NNE15.0 kmh NNE 14.0 mph22.5 kmh 29.81 in1009.5 mb 0.00 in0.0 mm 0.00 in/hr0.0 mm/hr 0.32 in8.1 mm
11:10 AM 78.3°F25.7°C 66.9°F19.4°C 68% 8.5 mph N13.7 kmh N 13.0 mph20.9 kmh 29.81 in1009.5 mb 0.00 in0.0 mm 0.00 in/hr0.0 mm/hr 0.32 in8.1 mm
11:20 AM 78.0°F25.6°C 66.6°F19.2°C 68% 7.9 mph NNE12.7 kmh NNE 19.0 mph30.6 kmh 29.81 in1009.5 mb 0.00 in0.0 mm 0.00 in/hr0.0 mm/hr 0.32 in8.1 mm
11:31 AM 78.3°F25.7°C 66.0°F18.9°C 66% 7.7 mph NNE12.4 kmh NNE 15.0 mph24.1 kmh 29.81 in1009.5 mb 0.00 in0.0 mm 0.00 in/hr0.0 mm/hr 0.32 in8.1 mm
11:40 AM 79.1°F26.2°C 65.4°F18.6°C 63% 13.0 mph N20.9 kmh N 18.0 mph29.0 kmh 29.81 in1009.5 mb 0.00 in0.0 mm 0.00 in/hr0.0 mm/hr 0.32 in8.1 mm
11:51 AM 79.0°F26.1°C 65.8°F18.8°C 64% 8.5 mph N13.7 kmh N 15.0 mph24.1 kmh 29.81 in1009.5 mb 0.00 in0.0 mm 0.00 in/hr0.0 mm/hr 0.32 in8.1 mm
12:01 PM 79.0°F26.1°C 64.8°F18.2°C 62% 10.7 mph N17.2 kmh N 15.0 mph24.1 kmh 29.81 in1009.5 mb 0.00 in0.0 mm 0.00 in/hr0.0 mm/hr 0.32 in8.1 mm
12:10 PM 79.6°F26.4°C 64.9°F18.3°C 61% 10.3 mph N16.6 kmh N 17.0 mph27.4 kmh 29.81 in1009.5 mb 0.00 in0.0 mm 0.00 in/hr0.0 mm/hr 0.32 in8.1 mm
12:20 PM 79.0°F26.1°C 62.9°F17.2°C 58% 7.7 mph ENE12.4 kmh ENE 16.0 mph25.7 kmh 29.81 in1009.5 mb 0.00 in0.0 mm 0.00 in/hr0.0 mm/hr 0.32 in8.1 mm
12:30 PM 79.5°F26.4°C 64.4°F18.0°C 60% 12.7 mph N20.4 kmh N 14.0 mph22.5 kmh 29.80 in1009.1 mb 0.00 in0.0 mm 0.00 in/hr0.0 mm/hr 0.32 in8.1 mm
12:40 PM 80.1°F26.7°C 64.5°F18.1°C 59% 9.1 mph N14.6 kmh N 15.0 mph24.1 kmh 29.80 in1009.1 mb 0.00 in0.0 mm 0.00 in/hr0.0 mm/hr 0.32 in8.1 mm
01:00 PM 80.2°F26.8°C 64.1°F17.8°C 58% 9.1 mph NW14.6 kmh NW 12.0 mph19.3 kmh 29.80 in1009.1 mb 0.00 in0.0 mm 0.00 in/hr0.0 mm/hr 0.32 in8.1 mm
01:10 PM 80.1°F26.7°C 63.5°F17.5°C 57% 12.6 mph N20.3 kmh N 17.0 mph27.4 kmh 29.80 in1009.1 mb 0.00 in0.0 mm 0.00 in/hr0.0 mm/hr 0.32 in8.1 mm
01:20 PM 80.2°F26.8°C 63.1°F17.3°C 56% 12.3 mph NE19.8 kmh NE 17.0 mph27.4 kmh 29.80 in1009.1 mb 0.00 in0.0 mm 0.00 in/hr0.0 mm/hr 0.32 in8.1 mm
01:30 PM 80.8°F27.1°C 65.2°F18.4°C 59% 6.3 mph N10.1 kmh N 13.0 mph20.9 kmh 29.79 in1008.8 mb 0.00 in0.0 mm 0.00 in/hr0.0 mm/hr 0.32 in8.1 mm
01:40 PM 80.9°F27.2°C 64.2°F17.9°C 57% 7.4 mph N11.9 kmh N 13.0 mph20.9 kmh 29.79 in1008.8 mb 0.00 in0.0 mm 0.00 in/hr0.0 mm/hr 0.32 in8.1 mm
01:50 PM 81.5°F27.5°C 64.8°F18.2°C 57% 10.8 mph NE17.4 kmh NE 17.0 mph27.4 kmh 29.79 in1008.8 mb 0.00 in0.0 mm 0.00 in/hr0.0 mm/hr 0.32 in8.1 mm
02:00 PM 81.8°F27.7°C 64.1°F17.8°C 55% 6.3 mph N10.1 kmh N 9.0 mph14.5 kmh 29.79 in1008.8 mb 0.00 in0.0 mm 0.00 in/hr0.0 mm/hr 0.32 in8.1 mm
02:10 PM 80.9°F27.2°C 63.7°F17.6°C 56% 11.1 mph NW17.9 kmh NW 18.0 mph29.0 kmh 29.79 in1008.8 mb 0.00 in0.0 mm 0.00 in/hr0.0 mm/hr 0.32 in8.1 mm
02:20 PM 80.7°F27.1°C 63.6°F17.6°C 56% 8.8 mph N14.2 kmh N 17.0 mph27.4 kmh 29.79 in1008.8 mb 0.00 in0.0 mm 0.00 in/hr0.0 mm/hr 0.32 in8.1 mm
02:30 PM 80.9°F27.2°C 63.7°F17.6°C 56% 11.5 mph N18.5 kmh N 18.0 mph29.0 kmh 29.79 in1008.8 mb 0.00 in0.0 mm 0.00 in/hr0.0 mm/hr 0.32 in8.1 mm
02:40 PM 81.0°F27.2°C 62.8°F17.1°C 54% 11.0 mph NW17.7 kmh NW 15.0 mph24.1 kmh 29.79 in1008.8 mb 0.00 in0.0 mm 0.00 in/hr0.0 mm/hr 0.32 in8.1 mm
02:50 PM 81.1°F27.3°C 63.4°F17.4°C 55% 11.7 mph NNW18.8 kmh NNW 15.0 mph24.1 kmh 29.79 in1008.8 mb 0.00 in0.0 mm 0.00 in/hr0.0 mm/hr 0.32 in8.1 mm
03:00 PM 81.9°F27.7°C 63.1°F17.3°C 53% 8.4 mph NNW13.5 kmh NNW 11.0 mph17.7 kmh 29.78 in1008.5 mb 0.00 in0.0 mm 0.00 in/hr0.0 mm/hr 0.32 in8.1 mm
03:10 PM 81.7°F27.6°C 62.9°F17.2°C 53% 7.7 mph N12.4 kmh N 11.0 mph17.7 kmh 29.78 in1008.5 mb 0.00 in0.0 mm 0.00 in/hr0.0 mm/hr 0.32 in8.1 mm
03:20 PM 82.0°F27.8°C 63.2°F17.3°C 53% 10.4 mph NNW16.7 kmh NNW 17.0 mph27.4 kmh 29.78 in1008.5 mb 0.00 in0.0 mm 0.00 in/hr0.0 mm/hr 0.32 in8.1 mm
03:30 PM 81.9°F27.7°C 63.6°F17.6°C 54% 5.8 mph NE9.3 kmh NE 9.0 mph14.5 kmh 29.78 in1008.5 mb 0.00 in0.0 mm 0.00 in/hr0.0 mm/hr 0.32 in8.1 mm
03:40 PM 81.6°F27.6°C 62.8°F17.1°C 53% 6.9 mph N11.1 kmh N 11.0 mph17.7 kmh 29.78 in1008.5 mb 0.00 in0.0 mm 0.00 in/hr0.0 mm/hr 0.32 in8.1 mm
03:50 PM 81.8°F27.7°C 63.0°F17.2°C 53% 8.4 mph NE13.5 kmh NE 13.0 mph20.9 kmh 29.78 in1008.5 mb 0.00 in0.0 mm 0.00 in/hr0.0 mm/hr 0.32 in8.1 mm
04:00 PM 81.9°F27.7°C 62.0°F16.7°C 51% 7.9 mph NNE12.7 kmh NNE 11.0 mph17.7 kmh 29.78 in1008.5 mb 0.00 in0.0 mm 0.00 in/hr0.0 mm/hr 0.32 in8.1 mm
04:10 PM 81.7°F27.6°C 62.4°F16.9°C 52% 6.2 mph NE10.0 kmh NE 11.0 mph17.7 kmh 29.78 in1008.5 mb 0.00 in0.0 mm 0.00 in/hr0.0 mm/hr 0.32 in8.1 mm
04:20 PM 82.1°F27.8°C 62.7°F17.1°C 52% 7.6 mph NW12.2 kmh NW 13.0 mph20.9 kmh 29.78 in1008.5 mb 0.00 in0.0 mm 0.00 in/hr0.0 mm/hr 0.32 in8.1 mm
04:30 PM 81.9°F27.7°C 62.6°F17.0°C 52% 7.1 mph NNW11.4 kmh NNW 12.0 mph19.3 kmh 29.77 in1008.1 mb 0.00 in0.0 mm 0.00 in/hr0.0 mm/hr 0.32 in8.1 mm
04:41 PM 80.7°F27.1°C 62.5°F16.9°C 54% 4.9 mph N7.9 kmh N 8.0 mph12.9 kmh 29.77 in1008.1 mb 0.00 in0.0 mm 0.00 in/hr0.0 mm/hr 0.32 in8.1 mm
04:51 PM 80.2°F26.8°C 63.6°F17.6°C 57% 3.3 mph NNW5.3 kmh NNW 8.0 mph12.9 kmh 29.78 in1008.5 mb 0.00 in0.0 mm 0.00 in/hr0.0 mm/hr 0.32 in8.1 mm
05:01 PM 80.9°F27.2°C 63.2°F17.3°C 55% 6.4 mph N10.3 kmh N 9.0 mph14.5 kmh 29.78 in1008.5 mb 0.00 in0.0 mm 0.00 in/hr0.0 mm/hr 0.32 in8.1 mm
05:10 PM 80.1°F26.7°C 64.0°F17.8°C 58% 4.1 mph NNE6.6 kmh NNE 7.0 mph11.3 kmh 29.77 in1008.1 mb 0.00 in0.0 mm 0.00 in/hr0.0 mm/hr 0.32 in8.1 mm
05:21 PM 80.8°F27.1°C 63.6°F17.6°C 56% 3.3 mph NNE5.3 kmh NNE 6.0 mph9.7 kmh 29.77 in1008.1 mb 0.00 in0.0 mm 0.00 in/hr0.0 mm/hr 0.32 in8.1 mm
05:31 PM 81.6°F27.6°C 64.4°F18.0°C 56% 3.1 mph NNE5.0 kmh NNE 5.0 mph8.0 kmh 29.77 in1008.1 mb 0.00 in0.0 mm 0.00 in/hr0.0 mm/hr 0.32 in8.1 mm
05:41 PM 81.2°F27.3°C 64.0°F17.8°C 56% 1.4 mph NNE2.3 kmh NNE 5.0 mph8.0 kmh 29.78 in1008.5 mb 0.00 in0.0 mm 0.00 in/hr0.0 mm/hr 0.32 in8.1 mm
05:50 PM 80.8°F27.1°C 64.1°F17.8°C 57% 1.7 mph NE2.7 kmh NE 5.0 mph8.0 kmh 29.78 in1008.5 mb 0.00 in0.0 mm 0.00 in/hr0.0 mm/hr 0.32 in8.1 mm
06:01 PM 79.5°F26.4°C 65.4°F18.6°C 62% 2.8 mph NE4.5 kmh NE 4.0 mph6.4 kmh 29.78 in1008.5 mb 0.02 in0.5 mm 0.02 in/hr0.5 mm/hr 0.34 in8.6 mm
06:10 PM 78.0°F25.6°C 65.8°F18.8°C 66% 6.3 mph ENE10.1 kmh ENE 10.0 mph16.1 kmh 29.79 in1008.8 mb 0.02 in0.5 mm 0.13 in/hr3.3 mm/hr 0.35 in8.9 mm
06:20 PM 76.2°F24.6°C 62.2°F16.8°C 62% 3.5 mph NE5.6 kmh NE 4.0 mph6.4 kmh 29.78 in1008.5 mb 0.00 in0.0 mm 0.00 in/hr0.0 mm/hr 0.35 in8.9 mm
06:31 PM 75.8°F24.3°C 62.8°F17.1°C 64% 2.1 mph NNE3.4 kmh NNE 4.0 mph6.4 kmh 29.79 in1008.8 mb 0.00 in0.0 mm 0.00 in/hr0.0 mm/hr 0.35 in8.9 mm
06:41 PM 75.5°F24.2°C 62.5°F16.9°C 64% 8.6 mph NE13.8 kmh NE 11.0 mph17.7 kmh 29.79 in1008.8 mb 0.00 in0.0 mm 0.00 in/hr0.0 mm/hr 0.35 in8.9 mm
06:51 PM 74.2°F23.4°C 61.3°F16.3°C 64% 5.4 mph NNE8.7 kmh NNE 10.0 mph16.1 kmh 29.80 in1009.1 mb 0.00 in0.0 mm 0.00 in/hr0.0 mm/hr 0.35 in8.9 mm
07:01 PM 73.7°F23.2°C 62.0°F16.7°C 67% 2.2 mph NE3.5 kmh NE 5.0 mph8.0 kmh 29.80 in1009.1 mb 0.00 in0.0 mm 0.00 in/hr0.0 mm/hr 0.35 in8.9 mm
07:11 PM 73.6°F23.1°C 62.8°F17.1°C 69% 2.5 mph NNW4.0 kmh NNW 6.0 mph9.7 kmh 29.80 in1009.1 mb 0.00 in0.0 mm 0.00 in/hr0.0 mm/hr 0.35 in8.9 mm
07:20 PM 73.5°F23.1°C 62.7°F17.1°C 69% 3.9 mph N6.3 kmh N 8.0 mph12.9 kmh 29.81 in1009.5 mb 0.00 in0.0 mm 0.00 in/hr0.0 mm/hr 0.35 in8.9 mm
07:31 PM 73.2°F22.9°C 62.0°F16.7°C 68% 6.9 mph NE11.1 kmh NE 8.0 mph12.9 kmh 29.81 in1009.5 mb 0.00 in0.0 mm 0.00 in/hr0.0 mm/hr 0.35 in8.9 mm
07:40 PM 72.5°F22.5°C 62.6°F17.0°C 71% 4.4 mph NE7.1 kmh NE 8.0 mph12.9 kmh 29.81 in1009.5 mb 0.00 in0.0 mm 0.00 in/hr0.0 mm/hr 0.35 in8.9 mm
07:50 PM 71.7°F22.1°C 62.6°F17.0°C 73% 3.6 mph NE5.8 kmh NE 6.0 mph9.7 kmh 29.82 in1009.8 mb 0.00 in0.0 mm 0.00 in/hr0.0 mm/hr 0.35 in8.9 mm
08:01 PM 70.8°F21.6°C 62.1°F16.7°C 74% 3.6 mph NE5.8 kmh NE 6.0 mph9.7 kmh 29.82 in1009.8 mb 0.00 in0.0 mm 0.00 in/hr0.0 mm/hr 0.35 in8.9 mm
08:11 PM 70.2°F21.2°C 61.9°F16.6°C 75% 2.9 mph NE4.7 kmh NE 3.0 mph4.8 kmh 29.83 in1010.2 mb 0.00 in0.0 mm 0.00 in/hr0.0 mm/hr 0.35 in8.9 mm
08:21 PM 69.5°F20.8°C 61.6°F16.4°C 76% 2.4 mph NNE3.9 kmh NNE 4.0 mph6.4 kmh 29.83 in1010.2 mb 0.00 in0.0 mm 0.00 in/hr0.0 mm/hr 0.35 in8.9 mm
08:31 PM 69.1°F20.6°C 61.9°F16.6°C 78% 0.7 mph NNE1.1 kmh NNE 1.0 mph1.6 kmh 29.84 in1010.5 mb 0.00 in0.0 mm 0.00 in/hr0.0 mm/hr 0.35 in8.9 mm
08:41 PM 68.8°F20.4°C 61.7°F16.5°C 78% 2.2 mph N3.5 kmh N 7.0 mph11.3 kmh 29.84 in1010.5 mb 0.00 in0.0 mm 0.00 in/hr0.0 mm/hr 0.35 in8.9 mm
08:51 PM 68.8°F20.4°C 59.8°F15.4°C 73% 3.4 mph N5.5 kmh N 5.0 mph8.0 kmh 29.84 in1010.5 mb 0.00 in0.0 mm 0.00 in/hr0.0 mm/hr 0.35 in8.9 mm
09:01 PM 68.6°F20.3°C 58.8°F14.9°C 71% 1.6 mph N2.6 kmh N 3.0 mph4.8 kmh 29.84 in1010.5 mb 0.00 in0.0 mm 0.00 in/hr0.0 mm/hr 0.35 in8.9 mm
09:11 PM 68.4°F20.2°C 58.6°F14.8°C 71% 2.8 mph N4.5 kmh N 6.0 mph9.7 kmh 29.84 in1010.5 mb 0.00 in0.0 mm 0.00 in/hr0.0 mm/hr 0.35 in8.9 mm
09:21 PM 68.4°F20.2°C 58.6°F14.8°C 71% 3.1 mph N5.0 kmh N 6.0 mph9.7 kmh 29.84 in1010.5 mb 0.00 in0.0 mm 0.00 in/hr0.0 mm/hr 0.35 in8.9 mm
09:31 PM 68.1°F20.1°C 58.3°F14.6°C 71% 4.0 mph N6.4 kmh N 6.0 mph9.7 kmh 29.85 in1010.8 mb 0.00 in0.0 mm 0.00 in/hr0.0 mm/hr 0.35 in8.9 mm
09:41 PM 68.1°F20.1°C 57.9°F14.4°C 70% 1.7 mph NNW2.7 kmh NNW 2.0 mph3.2 kmh 29.85 in1010.8 mb 0.00 in0.0 mm 0.00 in/hr0.0 mm/hr 0.35 in8.9 mm
09:50 PM 68.0°F20.0°C 57.4°F14.1°C 69% 1.4 mph NNW2.3 kmh NNW 3.0 mph4.8 kmh 29.85 in1010.8 mb 0.00 in0.0 mm 0.00 in/hr0.0 mm/hr 0.35 in8.9 mm
10:00 PM 67.7°F19.8°C 57.2°F14.0°C 69% 1.5 mph NNW2.4 kmh NNW 4.0 mph6.4 kmh 29.85 in1010.8 mb 0.00 in0.0 mm 0.00 in/hr0.0 mm/hr 0.35 in8.9 mm
10:10 PM 67.4°F19.7°C 56.9°F13.8°C 69% 1.1 mph NW1.8 kmh NW 3.0 mph4.8 kmh 29.85 in1010.8 mb 0.00 in0.0 mm 0.00 in/hr0.0 mm/hr 0.35 in8.9 mm
10:20 PM 67.3°F19.6°C 56.8°F13.8°C 69% 2.1 mph NNW3.4 kmh NNW 5.0 mph8.0 kmh 29.84 in1010.5 mb 0.00 in0.0 mm 0.00 in/hr0.0 mm/hr 0.35 in8.9 mm
10:30 PM 67.1°F19.5°C 57.0°F13.9°C 70% 4.2 mph N6.8 kmh N 5.0 mph8.0 kmh 29.84 in1010.5 mb 0.00 in0.0 mm 0.00 in/hr0.0 mm/hr 0.35 in8.9 mm
10:50 PM 66.3°F19.1°C 57.0°F13.9°C 72% Calm Calm 1.0 mph1.6 kmh 29.84 in1010.5 mb 0.00 in0.0 mm 0.00 in/hr0.0 mm/hr 0.35 in8.9 mm
11:00 PM 65.8°F18.8°C 57.3°F14.1°C 74% 0.1 mph NNW0.2 kmh NNW 1.0 mph1.6 kmh 29.85 in1010.8 mb 0.00 in0.0 mm 0.00 in/hr0.0 mm/hr 0.42 in10.7 mm
11:10 PM 65.1°F18.4°C 57.0°F13.9°C 75% 0.7 mph NNW1.1 kmh NNW 2.0 mph3.2 kmh 29.85 in1010.8 mb 0.00 in0.0 mm 0.00 in/hr0.0 mm/hr 0.42 in10.7 mm
11:20 PM 64.3°F17.9°C 56.9°F13.8°C 77% 3.7 mph WSW6.0 kmh WSW 5.0 mph8.0 kmh 29.85 in1010.8 mb 0.00 in0.0 mm 0.00 in/hr0.0 mm/hr 0.42 in10.7 mm
11:30 PM 63.5°F17.5°C 56.9°F13.8°C 79% 2.0 mph SW3.2 kmh SW 3.0 mph4.8 kmh 29.86 in1011.2 mb 0.00 in0.0 mm 0.00 in/hr0.0 mm/hr 0.42 in10.7 mm
11:40 PM 63.1°F17.3°C 56.5°F13.6°C 79% 0.2 mph SW0.3 kmh SW 2.0 mph3.2 kmh 29.86 in1011.2 mb 0.00 in0.0 mm 0.00 in/hr0.0 mm/hr 0.42 in10.7 mm
11:50 PM 63.0°F17.2°C 56.4°F13.6°C 79% 0.7 mph WSW1.1 kmh WSW 2.0 mph3.2 kmh 29.85 in1010.8 mb 0.00 in0.0 mm 0.00 in/hr0.0 mm/hr 0.42 in10.7 mm